createdAt,value
2022-08-26T00:01:00.273Z,20.00
2022-08-26T00:06:02.038Z,19.84
2022-08-26T00:11:04.328Z,19.87
2022-08-26T00:16:07.824Z,19.89
2022-08-26T00:21:11.033Z,19.88
2022-08-26T00:26:13.592Z,19.65
2022-08-26T00:31:15.525Z,19.59
2022-08-26T00:36:20.012Z,19.72
2022-08-26T00:41:22.253Z,19.71
2022-08-26T00:46:28.983Z,19.54
2022-08-26T00:51:31.273Z,19.65
2022-08-26T00:56:56.725Z,19.46
2022-08-26T01:01:58.469Z,19.56
2022-08-26T01:07:00.813Z,19.47
2022-08-26T01:12:03.477Z,19.38
2022-08-26T01:17:07.476Z,19.32
2022-08-26T01:22:28.223Z,19.25
2022-08-26T01:27:32.963Z,19.36
2022-08-26T01:32:36.397Z,19.16
2022-08-26T01:37:41.312Z,19.18
2022-08-26T01:42:43.825Z,19.20
2022-08-26T01:47:47.490Z,19.10
2022-08-26T01:52:54.507Z,19.10
2022-08-26T01:57:57.456Z,19.17
2022-08-26T02:03:17.630Z,19.14
2022-08-26T02:08:24.784Z,19.09
2022-08-26T02:13:31.399Z,19.15
2022-08-26T02:18:36.238Z,19.01
2022-08-26T02:23:39.934Z,19.02
2022-08-26T02:28:56.479Z,18.91
2022-08-26T02:34:12.960Z,18.87
2022-08-26T02:39:21.927Z,18.79
2022-08-26T02:44:24.065Z,18.88
2022-08-26T02:49:28.033Z,18.69
2022-08-26T02:54:29.742Z,18.81
2022-08-26T02:59:32.246Z,18.90
2022-08-26T03:04:33.991Z,18.88
2022-08-26T03:09:35.761Z,18.76
2022-08-26T03:14:37.882Z,18.67
2022-08-26T03:19:39.539Z,18.74
2022-08-26T03:24:46.034Z,18.76
2022-08-26T03:30:06.430Z,18.68
2022-08-26T03:35:09.097Z,18.47
2022-08-26T03:40:11.736Z,18.54
2022-08-26T03:45:15.448Z,18.60
2022-08-26T03:50:22.987Z,18.59
2022-08-26T03:55:31.107Z,18.53
2022-08-26T04:00:32.757Z,18.43
2022-08-26T04:05:36.136Z,18.44
2022-08-26T04:10:38.443Z,18.46
2022-08-26T04:15:40.078Z,18.49
2022-08-26T04:20:41.732Z,18.53
2022-08-26T04:25:43.440Z,18.47
2022-08-26T04:30:45.150Z,18.50
2022-08-26T04:35:47.830Z,18.48
2022-08-26T04:40:49.546Z,18.61
2022-08-26T04:45:51.402Z,18.50
2022-08-26T04:50:53.348Z,18.46
2022-08-26T04:55:55.430Z,18.50
2022-08-26T05:00:57.145Z,18.61
2022-08-26T05:05:58.854Z,18.70
2022-08-26T05:11:05.029Z,18.65
2022-08-26T05:16:11.589Z,18.75
2022-08-26T05:21:23.424Z,18.66
2022-08-26T05:26:27.019Z,18.82
2022-08-26T05:31:31.708Z,18.86
2022-08-26T05:36:35.473Z,18.92
2022-08-26T05:41:40.792Z,18.82
2022-08-26T05:46:44.007Z,19.05
2022-08-26T05:51:47.530Z,18.87
2022-08-26T05:56:51.317Z,19.41
2022-08-26T06:01:54.966Z,19.53
2022-08-26T06:06:57.637Z,19.77
2022-08-26T06:12:01.827Z,20.04
2022-08-26T06:17:03.806Z,20.30
2022-08-26T06:22:25.506Z,20.64
2022-08-26T06:27:32.140Z,20.44
2022-08-26T06:32:34.611Z,20.87
2022-08-26T06:37:36.849Z,20.77
2022-08-26T06:42:38.735Z,20.69
2022-08-26T06:47:40.951Z,21.57
2022-08-26T06:52:42.670Z,24.18
2022-08-26T06:57:44.288Z,26.04
2022-08-26T07:02:46.954Z,25.13
2022-08-26T07:07:48.990Z,24.38
2022-08-26T07:12:51.517Z,23.39
2022-08-26T07:17:53.151Z,23.65
2022-08-26T07:22:54.851Z,25.31
2022-08-26T07:27:56.517Z,25.99
2022-08-26T07:32:59.311Z,26.55
2022-08-26T07:38:01.699Z,26.43
2022-08-26T07:43:04.007Z,26.10
2022-08-26T07:48:05.963Z,28.09
2022-08-26T07:53:07.731Z,30.12
2022-08-26T07:58:12.465Z,28.28
2022-08-26T08:03:15.173Z,33.43
2022-08-26T08:08:26.795Z,35.69
2022-08-26T08:13:30.634Z,37.78
2022-08-26T08:18:33.724Z,38.46
2022-08-26T08:23:35.922Z,38.33
2022-08-26T08:28:38.931Z,39.17
2022-08-26T08:33:40.585Z,32.42
2022-08-26T08:38:44.450Z,29.59
2022-08-26T08:43:47.464Z,30.48
2022-08-26T08:48:57.323Z,29.08
2022-08-26T08:54:00.633Z,29.79
2022-08-26T08:59:09.824Z,27.81
2022-08-26T09:04:28.730Z,26.81
2022-08-26T09:09:39.241Z,26.29
2022-08-26T09:14:41.131Z,27.15
2022-08-26T09:20:06.110Z,26.30
2022-08-26T09:25:12.170Z,25.31
2022-08-26T09:30:23.361Z,25.45
2022-08-26T09:35:27.958Z,25.23
2022-08-26T09:40:34.882Z,24.93
2022-08-26T09:45:39.063Z,24.57
2022-08-26T09:51:03.616Z,24.42
2022-08-26T09:56:27.549Z,24.46
2022-08-26T10:01:42.357Z,24.50
2022-08-26T10:07:05.942Z,25.26
2022-08-26T10:12:13.384Z,28.05
2022-08-26T10:17:28.325Z,28.66
2022-08-26T10:22:44.501Z,35.23
2022-08-26T10:28:04.760Z,36.57
2022-08-26T10:33:13.378Z,31.73
2022-08-26T10:38:18.916Z,34.44
2022-08-26T10:43:35.778Z,37.15
2022-08-26T10:48:59.981Z,38.08
2022-08-26T10:54:04.855Z,41.29
2022-08-26T10:59:40.030Z,41.67
2022-08-26T11:04:53.575Z,40.56
2022-08-26T11:09:56.030Z,40.10
2022-08-26T11:14:59.390Z,39.92
2022-08-26T11:20:03.964Z,35.66
2022-08-26T11:25:16.163Z,36.21
2022-08-26T11:30:20.230Z,36.68
2022-08-26T11:35:24.649Z,36.78
2022-08-26T11:40:37.701Z,38.48
2022-08-26T11:45:44.930Z,37.58
2022-08-26T11:51:16.310Z,36.60
2022-08-26T11:56:31.622Z,36.50
2022-08-26T12:01:39.977Z,34.05
2022-08-26T12:06:51.014Z,34.81
2022-08-26T12:11:57.942Z,36.72
2022-08-26T12:17:10.450Z,34.81
2022-08-26T12:22:32.200Z,35.55
2022-08-26T12:27:42.443Z,36.71
2022-08-26T12:32:56.649Z,38.38
2022-08-26T12:38:00.445Z,37.53
2022-08-26T12:43:04.930Z,36.99
2022-08-26T12:48:13.555Z,35.57
2022-08-26T12:53:24.395Z,31.29
2022-08-26T12:58:39.457Z,31.24
2022-08-26T13:03:45.372Z,31.01
2022-08-26T13:08:56.920Z,30.54
2022-08-26T13:14:07.583Z,31.43
2022-08-26T13:19:12.161Z,33.70
2022-08-26T13:24:17.393Z,35.36
2022-08-26T13:29:19.433Z,32.23
2022-08-26T13:34:23.039Z,34.29
2022-08-26T13:39:26.313Z,31.68
2022-08-26T13:44:28.029Z,30.53
2022-08-26T13:49:29.723Z,29.50
2022-08-26T13:54:31.404Z,28.79
2022-08-26T13:59:33.056Z,28.34
2022-08-26T14:04:34.689Z,27.88
2022-08-26T14:09:38.372Z,27.86
2022-08-26T14:14:40.186Z,28.12
2022-08-26T14:19:46.056Z,28.65
2022-08-26T14:24:48.717Z,28.73
2022-08-26T14:29:50.601Z,28.78
2022-08-26T14:34:52.813Z,28.30
2022-08-26T14:39:54.487Z,28.06
2022-08-26T14:45:01.979Z,29.09
2022-08-26T14:50:04.530Z,29.98
2022-08-26T14:55:06.478Z,31.02
2022-08-26T15:00:08.940Z,30.63
2022-08-26T15:05:11.671Z,30.75
2022-08-26T15:10:16.123Z,31.19
2022-08-26T15:15:18.637Z,30.82
2022-08-26T15:20:20.413Z,30.46
2022-08-26T15:25:22.244Z,30.62
2022-08-26T15:30:23.975Z,31.07
2022-08-26T15:35:25.655Z,30.76
2022-08-26T15:40:27.380Z,29.81
2022-08-26T15:45:29.116Z,29.56
2022-08-26T15:50:30.929Z,29.13
2022-08-26T15:55:32.548Z,29.82
2022-08-26T16:00:34.211Z,29.83
2022-08-26T16:05:38.039Z,29.54
2022-08-26T16:10:45.445Z,29.21
2022-08-26T16:15:51.103Z,28.76
2022-08-26T16:21:12.866Z,28.64
2022-08-26T16:26:24.312Z,28.11
2022-08-26T16:31:26.225Z,28.17
2022-08-26T16:36:28.066Z,28.07
2022-08-26T16:41:31.604Z,27.85
2022-08-26T16:46:34.266Z,27.31
2022-08-26T16:51:38.137Z,27.29
2022-08-26T16:56:40.059Z,27.12
2022-08-26T17:01:41.799Z,27.11
2022-08-26T17:06:43.450Z,27.12
2022-08-26T17:11:45.189Z,26.73
2022-08-26T17:16:47.170Z,26.57
2022-08-26T17:21:49.249Z,26.28
2022-08-26T17:26:55.539Z,26.43
2022-08-26T17:31:57.496Z,26.24
2022-08-26T17:36:59.531Z,25.99
2022-08-26T17:42:01.203Z,25.69
2022-08-26T17:47:02.923Z,25.19
2022-08-26T17:52:09.618Z,24.96
2022-08-26T17:57:13.040Z,24.99
2022-08-26T18:02:14.766Z,24.97
2022-08-26T18:07:17.337Z,24.61
2022-08-26T18:12:18.978Z,24.39
2022-08-26T18:17:20.693Z,23.71
2022-08-26T18:22:23.288Z,23.79
2022-08-26T18:27:24.965Z,23.33
2022-08-26T18:32:26.630Z,22.98
2022-08-26T18:37:31.424Z,22.59
2022-08-26T18:42:33.683Z,22.42
2022-08-26T18:47:35.846Z,22.26
2022-08-26T18:52:37.858Z,22.16
2022-08-26T18:57:39.750Z,22.15
2022-08-26T19:02:41.476Z,22.19
2022-08-26T19:07:47.894Z,21.80
2022-08-26T19:12:52.117Z,21.94
2022-08-26T19:17:54.136Z,21.74
2022-08-26T19:22:57.568Z,21.70
2022-08-26T19:28:04.247Z,21.69
2022-08-26T19:33:09.995Z,21.80
2022-08-26T19:38:12.069Z,21.85
2022-08-26T19:43:13.746Z,21.80
2022-08-26T19:48:16.273Z,21.48
2022-08-26T19:53:17.928Z,21.87
2022-08-26T19:58:19.587Z,21.86
2022-08-26T20:03:23.757Z,21.85
2022-08-26T20:08:25.586Z,21.85
2022-08-26T20:13:28.295Z,21.37
2022-08-26T20:18:48.467Z,21.72
2022-08-26T20:23:51.468Z,21.83
2022-08-26T20:28:53.741Z,21.78
2022-08-26T20:33:55.751Z,21.67
2022-08-26T20:38:58.199Z,21.71
2022-08-26T20:44:00.441Z,22.00
2022-08-26T20:49:03.109Z,21.78
2022-08-26T20:54:07.849Z,21.58
2022-08-26T20:59:10.028Z,21.77
2022-08-26T21:04:17.719Z,21.85
2022-08-26T21:09:19.439Z,21.63
2022-08-26T21:14:25.652Z,21.61
2022-08-26T21:19:27.689Z,21.71
2022-08-26T21:24:29.410Z,21.73
2022-08-26T21:29:31.119Z,21.53
2022-08-26T21:34:32.811Z,21.21
2022-08-26T21:39:34.449Z,21.47
2022-08-26T21:44:36.222Z,21.68
2022-08-26T21:49:37.906Z,21.52
2022-08-26T21:54:39.886Z,21.36
2022-08-26T21:59:52.443Z,21.64
2022-08-26T22:04:54.153Z,21.57
2022-08-26T22:09:56.216Z,21.93
2022-08-26T22:14:57.891Z,21.77
2022-08-26T22:19:59.594Z,21.58
2022-08-26T22:25:02.019Z,21.66
2022-08-26T22:30:04.115Z,21.36
2022-08-26T22:35:28.211Z,21.58
2022-08-26T22:40:28.408Z,21.90
2022-08-26T22:45:31.782Z,21.74
2022-08-26T22:50:33.518Z,21.64
2022-08-26T22:55:36.204Z,21.68
2022-08-26T23:00:38.919Z,21.34
2022-08-26T23:05:42.207Z,21.20
2022-08-26T23:10:45.800Z,21.08
2022-08-26T23:15:47.608Z,20.94
2022-08-26T23:20:49.254Z,20.90
2022-08-26T23:25:50.968Z,20.74
2022-08-26T23:30:53.723Z,20.96
2022-08-26T23:35:55.430Z,20.84
2022-08-26T23:40:57.103Z,20.92
2022-08-26T23:45:59.015Z,20.90
2022-08-26T23:51:19.138Z,20.97
2022-08-26T23:56:20.932Z,20.97
